Address 0x8d673d95fda291bbec57bc60539de9f8f70eea55 2

 
 
Txn Hash Method
Block
From
To
Value [Txn Fee]
0xa80b2f52505b0277839a145d361205ea23ef455bbc5f91bcb099c58ed660698dDeposit301850812022-06-30 18:29:4026 mins ago0x8d673d95fda291bbec57bc60539de9f8f70eea55OUT 0xd814b26554204245a30f8a42c289af582421bf040 MATIC0.006129552 48
0x65e036bda45868dbbab03caff0a0764b781b633ed06916fa9e926ae5bfc5bc71Approve301850762022-06-30 18:29:3026 mins ago0x8d673d95fda291bbec57bc60539de9f8f70eea55OUT 0xde990994309bc08e57aca82b1a19170ad84323e80 MATIC0.001639439085 35.521061774
0x954578d821b8068a1ece890c5accc909a4eadf5502bc171e250625465f72416aAdd Liquidity301850552022-06-30 18:28:4827 mins ago0x8d673d95fda291bbec57bc60539de9f8f70eea55OUT SushiSwap: Router0 MATIC0.006962263529 35.901280523
0x3f8443f3fa559251b03368bd6c26eea43cd948c0bea7ef3388ad1e31a5538766Swap Exact Token...301849682022-06-30 18:25:5030 mins ago0x8d673d95fda291bbec57bc60539de9f8f70eea55OUT SushiSwap: Router0 MATIC0.006272717074 44.029881547
0xe6edc25a3ae281846287903b8692d29442844f515e8cb919f1ccfce595fa2a47Harvest All301846902022-06-30 18:16:1440 mins ago0x8d673d95fda291bbec57bc60539de9f8f70eea55OUT 0xd814b26554204245a30f8a42c289af582421bf040 MATIC0.009248829 69
0x19334ba32a4d68404497d9448f92af488728d118d33257d52dd070a36c342a87Deposit301627052022-06-30 4:53:1114 hrs 3 mins ago0x8d673d95fda291bbec57bc60539de9f8f70eea55OUT 0xd814b26554204245a30f8a42c289af582421bf040 MATIC0.007406542 58
0x55b5a5ec647f52888e6947a50b9cf5d7b19f4f27bfc50382dd0f28549cedef5dApprove301627002022-06-30 4:53:0114 hrs 3 mins ago0x8d673d95fda291bbec57bc60539de9f8f70eea55OUT 0xde990994309bc08e57aca82b1a19170ad84323e80 MATIC0.00164168118 35.569640339
0x8736c474566e9da98a80119f97e3cfca61acbb35b3fb668936a521a3d53b4f21Add Liquidity301626832022-06-30 4:52:2314 hrs 4 mins ago0x8d673d95fda291bbec57bc60539de9f8f70eea55OUT SushiSwap: Router0 MATIC0.007153335485 38.471409902
0x27032a58a3609b6884db0bbea8f40883416d4471093138722b9a7897de6cd522Swap Exact Token...301626442022-06-30 4:51:0514 hrs 5 mins ago0x8d673d95fda291bbec57bc60539de9f8f70eea55OUT SushiSwap: Router0 MATIC0.004780720304 33.557156523
0x7c3966c67dd3b50013cc9237e9628952aa348d27abf3ec30596d86d32d433237Harvest All301625682022-06-30 4:48:2914 hrs 7 mins ago0x8d673d95fda291bbec57bc60539de9f8f70eea55OUT 0xd814b26554204245a30f8a42c289af582421bf040 MATIC0.007774378 58
0xb904a555bb213a360fce18f9e55722999f26c694f37d20560146cb1e8529580cDeposit301417952022-06-29 15:49:591 day 3 hrs ago0x8d673d95fda291bbec57bc60539de9f8f70eea55OUT 0xd814b26554204245a30f8a42c289af582421bf040 MATIC0.007917338 62
0xf69290fc8f9710495b75152ba0c033e6d95a25c03d58ff2a003ac6d404a514ebApprove301417872022-06-29 15:49:431 day 3 hrs ago0x8d673d95fda291bbec57bc60539de9f8f70eea55OUT 0xde990994309bc08e57aca82b1a19170ad84323e80 MATIC0.001534253127 33.242040298
0x39fa704761c0e6704368c54803bd188062650af2e8fb2640a95dc2fdab715c5dAdd Liquidity301417672022-06-29 15:49:031 day 3 hrs ago0x8d673d95fda291bbec57bc60539de9f8f70eea55OUT SushiSwap: Router0 MATIC0.006990148574 36.045071237
0x87ea897c256d3afe1136ec9f63f0feca15d63972524605affabd66646055e873Swap Exact Token...301417372022-06-29 15:47:591 day 3 hrs ago0x8d673d95fda291bbec57bc60539de9f8f70eea55OUT SushiSwap: Router0 MATIC0.006059587002 42.533864475
0x9ad114053366a1d3134b89fe5d40ab03c3cc100aeac81e4a4f1fa1abf9dc64d5Harvest All301416792022-06-29 15:45:591 day 3 hrs ago0x8d673d95fda291bbec57bc60539de9f8f70eea55OUT 0xd814b26554204245a30f8a42c289af582421bf040 MATIC0.008310542 62
0x0dc8b755a6c085740392fb4ff8f8b2d9c007acc8cb4b097ece149014855a81c8Deposit301237092022-06-29 4:39:411 day 14 hrs ago0x8d673d95fda291bbec57bc60539de9f8f70eea55OUT 0xd814b26554204245a30f8a42c289af582421bf040 MATIC0.009066629 71
0x137b1f00d2439df9c8c46e9b3afead5872717bd83b982d58f04bacf808d07032Approve301237052022-06-29 4:39:331 day 14 hrs ago0x8d673d95fda291bbec57bc60539de9f8f70eea55OUT 0xde990994309bc08e57aca82b1a19170ad84323e80 MATIC0.00143641167 31.122149121
0xa55482b8c2090b5acc6f89e3797c0a93cf07747e9611e7a70a5b4f1a252862d6Add Liquidity301236812022-06-29 4:38:441 day 14 hrs ago0x8d673d95fda291bbec57bc60539de9f8f70eea55OUT SushiSwap: Router0 MATIC0.00622211973 32.084689835
0x966107a7cda3ec0a56a15dfd79517be8afcc1facd6e1c5c5a3a6fd5bd79afaf4Swap Exact Token...301236482022-06-29 4:37:381 day 14 hrs ago0x8d673d95fda291bbec57bc60539de9f8f70eea55OUT SushiSwap: Router0 MATIC0.004032885834 32.169152747
0xace27730d02511f4ac40a717fa1c14fb3dd4a5698d319913c879bb412dcb078eHarvest All301236052022-06-29 4:36:081 day 14 hrs ago0x8d673d95fda291bbec57bc60539de9f8f70eea55OUT 0xd814b26554204245a30f8a42c289af582421bf040 MATIC0.009516911 71
0x273dd60134375648c22db1e8002c5d6432377d3358b41aacf532a4f448938234Deposit301054582022-06-28 17:27:122 days 1 hr ago0x8d673d95fda291bbec57bc60539de9f8f70eea55OUT 0xd814b26554204245a30f8a42c289af582421bf040 MATIC0.005618756 44
0x958f80e900a4ade987cc2c1973ba2da93033538701145029980e0c6803ab4b71Approve301054502022-06-28 17:26:562 days 1 hr ago0x8d673d95fda291bbec57bc60539de9f8f70eea55OUT 0xde990994309bc08e57aca82b1a19170ad84323e80 MATIC0.001835503394 39.769107656
0x32f1805f7f386942892a3a139c7845564d31aa1203c4c6c90986c17487841e11Add Liquidity301054282022-06-28 17:26:122 days 1 hr ago0x8d673d95fda291bbec57bc60539de9f8f70eea55OUT SushiSwap: Router0 MATIC0.006806962206 34.202402807
0xa7af205f745e41d167861d26e504ba511fb3821a211a3ffdaea34372ea6e8905Swap Exact Token...301054052022-06-28 17:25:222 days 1 hr ago0x8d673d95fda291bbec57bc60539de9f8f70eea55OUT SushiSwap: Router0 MATIC0.0059562588 41.808576148
0x3b496fc1301975192a109cf974e9ad5cae40273ec784e3f3d553b7b4bfa3f3c5Harvest All301053742022-06-28 17:24:202 days 1 hr ago0x8d673d95fda291bbec57bc60539de9f8f70eea55OUT 0xd814b26554204245a30f8a42c289af582421bf040 MATIC0.005897804 44
[ Download CSV Export 
Latest 6 internal transactions
Parent Txn Hash Block From To Value
0x6aba686c0cf2583c610963298e734a33af89a7452dc34a0f991de7f32ce73361299630282022-06-25 0:14:545 days 18 hrs ago 0xc5017be80b4446988e8686168396289a9a62668e0x8d673d95fda291bbec57bc60539de9f8f70eea558.312007586239973693 MATIC
0x3e1a09b3b5168ed8efbeedb3d476847b019cab3e909222b4bdb687aee4c5279e293839752022-06-10 5:44:2220 days 13 hrs ago SushiSwap: Router0x8d673d95fda291bbec57bc60539de9f8f70eea5516.931867853250964819 MATIC
0xa601f430a1e5bcf4504badb9f1b72325d0e7af7117a5f3ca2c8b685ceadc12b0282093622022-05-12 0:27:5349 days 18 hrs ago SushiSwap: Router0x8d673d95fda291bbec57bc60539de9f8f70eea5512.872533348557212141 MATIC
0x424d02c78dfd5a8fcd1f62149b35d8df6e98b7b6cfa271f13a5164901e75e127276265952022-04-27 6:11:5364 days 12 hrs ago SushiSwap: Router0x8d673d95fda291bbec57bc60539de9f8f70eea552.639103919534134778 MATIC
0x441d33d00b84e9d80676cb19b3643e92c24b0aa15e31982299a4c1d5288767e9271585342022-04-15 7:29:0476 days 11 hrs ago 0xc5017be80b4446988e8686168396289a9a62668e0x8d673d95fda291bbec57bc60539de9f8f70eea551.677409465088371872 MATIC
0x525da773711cf25924267f1f037c21238bc974ca77b539a858837fbf8dc62581269891462022-04-11 1:04:3980 days 17 hrs ago 0xc5017be80b4446988e8686168396289a9a62668e0x8d673d95fda291bbec57bc60539de9f8f70eea551.717001374377942436 MATIC
[ Download CSV Export 
Loading

Contract Name:
0 MATIC

Compiler Version
0

Optimization Enabled:
0 MATIC

Other Settings:
-NA-
Block Transaction Gas Used Reward
Age Block Fee Address BC Fee Address Voting Power Jailed Incoming
Block Uncle Number Difficulty Gas Used Reward
Loading
Loading
Make sure to use the "Vote Down" button for any spammy posts, and the "Vote Up" for interesting conversations.